Time;durP1;ratioP1;P1;durP2;ratioP2;P2;SDS_P1;SDS_P2;PMS_P1;PMS_P2;Temp;Humidity;BMP_temperature;BMP_pressure;BME280_temperature;BME280_humidity;BME280_pressure;Samples;Min_cycle;Max_cycle;Signal;HPM_P1;HPM_P2
2022/01/13 00:01:57;;;;;;;;;;;18.90;58.70;;;;;;6175422;23;19903;-81
2022/01/13 00:04:23;;;;;;;;;;;18.90;58.70;;;;;;6241691;23;20252;-82
2022/01/13 00:06:48;;;;;;;;;;;18.90;58.70;;;;;;6242067;23;20024;-81
2022/01/13 00:09:14;;;;;;;;;;;18.90;58.60;;;;;;6241068;23;19919;-80
2022/01/13 00:11:41;;;;;;;;;;;18.90;58.60;;;;;;6241048;23;20377;-81
2022/01/13 00:17:08;;;;;;;;;;;18.80;58.50;;;;;;6240430;23;19904;-82
2022/01/13 00:19:58;;;;;;;;;;;18.80;58.60;;;;;;6240477;23;19949;-82
2022/01/13 00:22:29;;;;;;;;;;;18.80;58.50;;;;;;6240864;23;19935;-82
2022/01/13 00:24:58;;;;;;;;;;;18.80;58.50;;;;;;6242842;23;19931;-77
2022/01/13 00:27:26;;;;;;;;;;;18.80;58.50;;;;;;6243247;23;20320;-76
2022/01/13 00:29:54;;;;;;;;;;;18.60;58.40;;;;;;6216644;23;19925;-81
2022/01/13 00:32:22;;;;;;;;;;;18.80;58.50;;;;;;6243182;23;20332;-81
2022/01/13 00:34:48;;;;;;;;;;;18.80;58.50;;;;;;6242521;23;19937;-82
2022/01/13 00:37:13;;;;;;;;;;;18.80;58.40;;;;;;6242380;23;20023;-81
2022/01/13 00:39:39;;;;;;;;;;;18.80;58.40;;;;;;6242173;23;19943;-82
2022/01/13 00:42:04;;;;;;;;;;;18.80;58.40;;;;;;6242574;23;19946;-81
2022/01/13 00:44:35;;;;;;;;;;;18.70;58.40;;;;;;6242557;23;19927;-81
2022/01/13 00:47:01;;;;;;;;;;;18.70;58.30;;;;;;6242355;23;19914;-78
2022/01/13 00:49:27;;;;;;;;;;;18.70;58.30;;;;;;6242370;23;20390;-80
2022/01/13 00:51:53;;;;;;;;;;;18.70;58.30;;;;;;6243409;23;19904;-82
2022/01/13 00:54:18;;;;;;;;;;;18.70;58.30;;;;;;6242457;23;19941;-81
2022/01/13 00:56:44;;;;;;;;;;;18.70;58.30;;;;;;6241948;23;19912;-81
2022/01/13 00:59:11;;;;;;;;;;;18.70;58.30;;;;;;6242371;23;19945;-81
2022/01/13 01:01:37;;;;;;;;;;;18.70;58.30;;;;;;6242402;23;19903;-81
2022/01/13 01:04:04;;;;;;;;;;;18.70;58.30;;;;;;6241929;23;20244;-81
2022/01/13 01:06:29;;;;;;;;;;;18.60;58.20;;;;;;6242184;23;19907;-79
2022/01/13 01:08:55;;;;;;;;;;;18.60;58.20;;;;;;6216091;23;20013;-81
2022/01/13 01:11:20;;;;;;;;;;;18.60;57.40;;;;;;6241906;23;20291;-81
2022/01/13 01:13:49;;;;;;;;;;;18.60;58.10;;;;;;6242229;23;19943;-80
2022/01/13 01:16:17;;;;;;;;;;;18.70;58.20;;;;;;6242128;23;19904;-81
2022/01/13 01:26:30;;;;;;;;;;;18.60;58.00;;;;;;6242227;23;20320;-82
2022/01/13 01:29:08;;;;;;;;;;;18.70;58.00;;;;;;6243002;23;19904;-78
2022/01/13 01:31:35;;;;;;;;;;;18.70;58.00;;;;;;6241970;23;19904;-80
2022/01/13 01:37:06;;;;;;;;;;;18.70;57.80;;;;;;6119859;23;19905;-83
2022/01/13 01:39:31;;;;;;;;;;;18.70;57.80;;;;;;6218947;23;20324;-82
2022/01/13 01:41:57;;;;;;;;;;;18.70;57.70;;;;;;6242484;23;19914;-78
2022/01/13 01:44:31;;;;;;;;;;;18.70;57.70;;;;;;6216185;23;19942;-81
2022/01/13 01:46:58;;;;;;;;;;;18.80;57.70;;;;;;6242993;23;20053;-83
2022/01/13 01:49:25;;;;;;;;;;;18.80;57.60;;;;;;6242623;23;20284;-81
2022/01/13 01:51:53;;;;;;;;;;;18.80;57.50;;;;;;6242091;23;19907;-82
2022/01/13 01:54:18;;;;;;;;;;;18.80;57.50;;;;;;6241537;23;19908;-82
2022/01/13 01:56:44;;;;;;;;;;;18.80;57.40;;;;;;6241574;23;19957;-80
2022/01/13 01:59:16;;;;;;;;;;;18.80;57.40;;;;;;6241611;23;19974;-81
2022/01/13 02:01:42;;;;;;;;;;;18.90;57.40;;;;;;6241902;23;19927;-81
2022/01/13 02:04:08;;;;;;;;;;;18.90;57.30;;;;;;6241656;23;20025;-81
2022/01/13 02:06:35;;;;;;;;;;;18.90;57.20;;;;;;6241543;23;20290;-81
2022/01/13 02:09:02;;;;;;;;;;;18.90;57.10;;;;;;6241405;23;19940;-81
2022/01/13 02:11:28;;;;;;;;;;;18.90;57.10;;;;;;6215903;23;19915;-81
2022/01/13 02:13:57;;;;;;;;;;;19.00;57.00;;;;;;6242118;23;19904;-81
2022/01/13 02:18:54;;;;;;;;;;;19.00;56.80;;;;;;6242444;23;19903;-82
2022/01/13 02:21:20;;;;;;;;;;;19.00;56.80;;;;;;6241340;23;20244;-82
2022/01/13 02:23:45;;;;;;;;;;;19.10;56.70;;;;;;6241505;23;20372;-82
2022/01/13 02:26:11;;;;;;;;;;;19.10;56.60;;;;;;6241239;23;20244;-81
2022/01/13 02:28:38;;;;;;;;;;;19.20;56.50;;;;;;6215026;23;19947;-82
2022/01/13 02:31:03;;;;;;;;;;;19.20;57.40;;;;;;6241374;23;19914;-81
2022/01/13 02:33:29;;;;;;;;;;;19.20;56.40;;;;;;6241913;23;19965;-82
2022/01/13 02:35:55;;;;;;;;;;;19.20;56.30;;;;;;6215060;23;19904;-82
2022/01/13 02:38:21;;;;;;;;;;;19.30;56.20;;;;;;6241244;23;19990;-82
2022/01/13 02:40:52;;;;;;;;;;;19.30;56.10;;;;;;6241689;23;19919;-81
2022/01/13 02:43:17;;;;;;;;;;;19.30;56.00;;;;;;6241513;23;19935;-83
2022/01/13 02:46:02;;;;;;;;;;;19.40;55.90;;;;;;6240887;23;19903;-82
2022/01/13 02:48:30;;;;;;;;;;;19.40;55.90;;;;;;6242010;23;20368;-82
2022/01/13 02:50:56;;;;;;;;;;;19.40;55.80;;;;;;6214961;23;19950;-81
2022/01/13 02:53:22;;;;;;;;;;;19.40;55.80;;;;;;6241391;23;19938;-80
2022/01/13 02:55:48;;;;;;;;;;;19.40;55.70;;;;;;6240872;23;20288;-81
2022/01/13 02:58:16;;;;;;;;;;;19.50;55.90;;;;;;6240492;23;20238;-82
2022/01/13 03:00:42;;;;;;;;;;;19.40;55.90;;;;;;6213661;23;19951;-77
2022/01/13 03:03:08;;;;;;;;;;;19.50;56.00;;;;;;6240976;23;19908;-77
2022/01/13 03:05:37;;;;;;;;;;;19.50;55.70;;;;;;6241286;23;19938;-80
2022/01/13 03:08:04;;;;;;;;;;;19.50;55.60;;;;;;6241233;23;19904;-77
2022/01/13 03:10:29;;;;;;;;;;;19.60;55.50;;;;;;6242409;23;19904;-77
2022/01/13 03:12:56;;;;;;;;;;;19.60;55.50;;;;;;6241663;23;19982;-85
2022/01/13 03:15:22;;;;;;;;;;;19.60;55.60;;;;;;6241439;23;20652;-86
2022/01/13 03:17:47;;;;;;;;;;;19.70;55.50;;;;;;6241381;23;19908;-84
2022/01/13 03:20:13;;;;;;;;;;;19.70;56.40;;;;;;6241370;23;19911;-87
2022/01/13 03:22:38;;;;;;;;;;;19.70;55.40;;;;;;6241361;23;19937;-87
2022/01/13 03:25:04;;;;;;;;;;;19.70;55.30;;;;;;6241461;23;19949;-80
2022/01/13 03:27:34;;;;;;;;;;;19.70;55.30;;;;;;6242231;23;19910;-83
2022/01/13 03:30:03;;;;;;;;;;;19.80;55.30;;;;;;6242204;23;20332;-82
2022/01/13 03:32:28;;;;;;;;;;;19.80;55.50;;;;;;6242069;23;19908;-80
2022/01/13 03:34:54;;;;;;;;;;;19.80;55.60;;;;;;6241399;23;19908;-80
2022/01/13 03:37:19;;;;;;;;;;;19.80;55.60;;;;;;6241478;23;19923;-80
2022/01/13 03:39:45;;;;;;;;;;;19.80;55.50;;;;;;6241240;23;19930;-80
2022/01/13 03:42:10;;;;;;;;;;;19.80;55.50;;;;;;6241228;23;19942;-80
2022/01/13 03:44:36;;;;;;;;;;;19.90;55.50;;;;;;6214191;23;19957;-79
2022/01/13 03:47:04;;;;;;;;;;;19.90;55.50;;;;;;6242152;23;19942;-81
2022/01/13 03:49:30;;;;;;;;;;;19.90;55.40;;;;;;6242369;23;19923;-81
2022/01/13 03:51:58;;;;;;;;;;;19.80;55.30;;;;;;6241205;23;20324;-82
2022/01/13 03:54:33;;;;;;;;;;;19.90;55.40;;;;;;6214226;23;20437;-79
2022/01/13 03:57:18;;;;;;;;;;;19.80;55.30;;;;;;6241980;23;20347;-80
2022/01/13 03:59:51;;;;;;;;;;;19.90;55.30;;;;;;6242586;23;19922;-81
2022/01/13 04:02:17;;;;;;;;;;;19.80;55.30;;;;;;6243083;23;19945;-83
2022/01/13 04:04:44;;;;;;;;;;;19.80;55.20;;;;;;6243053;23;19990;-82
2022/01/13 04:07:17;;;;;;;;;;;19.80;55.20;;;;;;6243214;23;19904;-83
2022/01/13 04:09:43;;;;;;;;;;;19.80;55.20;;;;;;6243176;23;19907;-83
2022/01/13 04:12:11;;;;;;;;;;;19.80;55.20;;;;;;6242918;23;20290;-84
2022/01/13 04:14:49;;;;;;;;;;;19.80;55.20;;;;;;6243346;23;19907;-79
2022/01/13 04:17:16;;;;;;;;;;;19.80;55.20;;;;;;6242916;23;19978;-82
2022/01/13 04:19:42;;;;;;;;;;;19.90;55.20;;;;;;6242687;23;20025;-84
2022/01/13 04:22:08;;;;;;;;;;;19.90;54.90;;;;;;6242771;23;19945;-83
2022/01/13 04:24:40;;;;;;;;;;;19.90;54.80;;;;;;6243616;23;19914;-85
2022/01/13 04:27:08;;;;;;;;;;;19.90;54.80;;;;;;6243744;23;19938;-77
2022/01/13 04:29:37;;;;;;;;;;;19.90;54.80;;;;;;6220955;23;19949;-85
2022/01/13 04:32:04;;;;;;;;;;;19.90;54.90;;;;;;6246451;23;20064;-92
2022/01/13 04:34:29;;;;;;;;;;;19.90;54.60;;;;;;6243967;23;20296;-88
2022/01/13 04:36:56;;;;;;;;;;;19.90;54.60;;;;;;6243295;23;19910;-81
2022/01/13 04:39:22;;;;;;;;;;;20.00;54.70;;;;;;6242012;23;20374;-81
2022/01/13 04:41:48;;;;;;;;;;;20.00;54.90;;;;;;6242271;23;19916;-82
2022/01/13 04:44:19;;;;;;;;;;;19.90;54.80;;;;;;6244186;23;19935;-94
2022/01/13 04:46:45;;;;;;;;;;;19.90;55.80;;;;;;6244226;23;20344;-84
2022/01/13 04:49:11;;;;;;;;;;;19.90;55.00;;;;;;6242526;23;20354;-82
2022/01/13 04:51:37;;;;;;;;;;;19.90;53.00;;;;;;6242985;23;19937;-83
2022/01/13 04:54:03;;;;;;;;;;;19.70;55.40;;;;;;6242901;23;20324;-85
2022/01/13 04:56:32;;;;;;;;;;;19.70;55.20;;;;;;6241855;23;19911;-84
2022/01/13 04:58:58;;;;;;;;;;;19.70;55.40;;;;;;6242149;23;20002;-85
2022/01/13 05:01:23;;;;;;;;;;;19.70;55.40;;;;;;6214809;23;19912;-85
2022/01/13 05:03:49;;;;;;;;;;;19.70;55.50;;;;;;6241935;23;19903;-84
2022/01/13 05:06:18;;;;;;;;;;;19.70;55.60;;;;;;6213737;23;19918;-80
2022/01/13 05:08:45;;;;;;;;;;;19.70;55.80;;;;;;6235707;23;20301;-81
2022/01/13 05:11:10;;;;;;;;;;;19.70;55.70;;;;;;6241003;23;20535;-81
2022/01/13 05:13:36;;;;;;;;;;;19.70;55.70;;;;;;6243188;23;19943;-81
2022/01/13 05:16:01;;;;;;;;;;;19.70;55.70;;;;;;6241402;23;19904;-81
2022/01/13 05:18:54;;;;;;;;;;;19.70;55.70;;;;;;6240901;23;19907;-80
2022/01/13 05:21:25;;;;;;;;;;;19.70;55.70;;;;;;6239668;23;19911;-83
2022/01/13 05:23:52;;;;;;;;;;;19.70;55.60;;;;;;6240755;23;19942;-82
2022/01/13 05:26:21;;;;;;;;;;;19.70;55.50;;;;;;6240068;23;19974;-81
2022/01/13 05:28:47;;;;;;;;;;;19.70;55.50;;;;;;6240757;23;19961;-82
2022/01/13 05:31:13;;;;;;;;;;;19.70;55.50;;;;;;6241805;23;19904;-83
2022/01/13 05:33:38;;;;;;;;;;;19.70;55.50;;;;;;6242697;23;19944;-83
2022/01/13 05:36:04;;;;;;;;;;;19.70;55.50;;;;;;6242304;23;19937;-83
2022/01/13 05:38:30;;;;;;;;;;;19.70;55.40;;;;;;6241558;23;19942;-81
2022/01/13 05:40:58;;;;;;;;;;;19.70;55.50;;;;;;6241452;23;20274;-82
2022/01/13 05:43:23;;;;;;;;;;;19.70;55.40;;;;;;6241372;23;19904;-81
2022/01/13 05:45:49;;;;;;;;;;;19.70;55.50;;;;;;6241239;23;19926;-82
2022/01/13 05:48:14;;;;;;;;;;;19.70;55.50;;;;;;6241559;23;19946;-80
2022/01/13 05:50:40;;;;;;;;;;;19.70;55.50;;;;;;6214750;23;20383;-81
2022/01/13 05:53:05;;;;;;;;;;;19.70;55.40;;;;;;6242816;23;19990;-83
2022/01/13 05:55:31;;;;;;;;;;;19.70;55.40;;;;;;6241536;23;20000;-80
2022/01/13 05:57:57;;;;;;;;;;;19.70;56.40;;;;;;6241684;23;19904;-85
2022/01/13 06:00:23;;;;;;;;;;;19.60;55.40;;;;;;6240977;23;20256;-89
2022/01/13 06:02:49;;;;;;;;;;;19.60;55.30;;;;;;6241778;23;19938;-82
2022/01/13 06:05:15;;;;;;;;;;;19.60;55.30;;;;;;6242322;23;19940;-88
2022/01/13 06:07:40;;;;;;;;;;;19.60;55.60;;;;;;6216509;23;19967;-88
2022/01/13 06:10:08;;;;;;;;;;;19.50;55.50;;;;;;6216359;23;20136;-85
2022/01/13 06:12:37;;;;;;;;;;;19.50;55.70;;;;;;6241697;23;19904;-86
2022/01/13 06:15:09;;;;;;;;;;;19.50;55.80;;;;;;6241844;23;19989;-87
2022/01/13 06:17:35;;;;;;;;;;;19.60;55.90;;;;;;6242037;23;19910;-80
2022/01/13 06:20:01;;;;;;;;;;;19.60;56.00;;;;;;6241548;23;19908;-84
2022/01/13 06:22:27;;;;;;;;;;;19.60;55.90;;;;;;6215480;23;19970;-87
2022/01/13 06:24:53;;;;;;;;;;;19.60;56.00;;;;;;6242013;23;19907;-85
2022/01/13 06:27:19;;;;;;;;;;;19.60;56.10;;;;;;6242000;23;20232;-83
2022/01/13 06:29:45;;;;;;;;;;;19.50;56.00;;;;;;6241665;23;19927;-89
2022/01/13 06:32:10;;;;;;;;;;;19.50;56.10;;;;;;6243338;23;19903;-84
2022/01/13 06:34:36;;;;;;;;;;;19.60;56.10;;;;;;6242293;23;19967;-86
2022/01/13 06:37:02;;;;;;;;;;;19.50;56.00;;;;;;6242341;23;20610;-82
2022/01/13 06:39:27;;;;;;;;;;;19.50;56.00;;;;;;6241993;23;19973;-84
2022/01/13 06:41:53;;;;;;;;;;;19.50;56.20;;;;;;6241973;23;19947;-82
2022/01/13 06:44:18;;;;;;;;;;;19.50;56.00;;;;;;6241914;23;19949;-89
2022/01/13 06:46:43;;;;;;;;;;;19.50;56.00;;;;;;6215306;23;20340;-84
2022/01/13 06:49:09;;;;;;;;;;;19.50;55.90;;;;;;6243128;23;19938;-89
2022/01/13 06:51:35;;;;;;;;;;;19.50;55.90;;;;;;6215250;23;19982;-92
2022/01/13 06:54:00;;;;;;;;;;;19.50;55.90;;;;;;6215020;23;19995;-86
2022/01/13 06:56:26;;;;;;;;;;;19.50;55.90;;;;;;6241884;23;19919;-86
2022/01/13 06:58:52;;;;;;;;;;;19.40;55.80;;;;;;6214952;23;19911;-88
2022/01/13 07:01:20;;;;;;;;;;;19.40;55.70;;;;;;6242230;23;19953;-86
2022/01/13 07:03:46;;;;;;;;;;;19.40;55.70;;;;;;6242235;23;19914;-79
2022/01/13 07:06:11;;;;;;;;;;;19.40;55.70;;;;;;6242889;23;19904;-83
2022/01/13 07:08:37;;;;;;;;;;;19.30;55.70;;;;;;6241660;23;19921;-87
2022/01/13 07:11:04;;;;;;;;;;;19.40;55.70;;;;;;6241847;23;19938;-92
2022/01/13 07:13:30;;;;;;;;;;;19.30;55.60;;;;;;6241790;23;19904;-90
2022/01/13 07:15:58;;;;;;;;;;;19.30;55.60;;;;;;6242103;23;19931;-83
2022/01/13 07:18:24;;;;;;;;;;;19.30;55.50;;;;;;6241911;23;19911;-88
2022/01/13 07:20:49;;;;;;;;;;;19.30;55.50;;;;;;6241660;23;19911;-83
2022/01/13 07:23:15;;;;;;;;;;;19.30;55.50;;;;;;6242689;23;19939;-79
2022/01/13 07:25:40;;;;;;;;;;;19.30;55.70;;;;;;6242681;23;19903;-84
2022/01/13 07:28:06;;;;;;;;;;;19.30;55.50;;;;;;6241914;23;19971;-88
2022/01/13 07:30:34;;;;;;;;;;;19.20;55.50;;;;;;6242181;23;19978;-88
2022/01/13 07:32:59;;;;;;;;;;;19.20;55.30;;;;;;6241831;23;19945;-80
2022/01/13 07:35:25;;;;;;;;;;;19.20;56.60;;;;;;6241893;23;19904;-80
2022/01/13 07:37:51;;;;;;;;;;;19.20;55.50;;;;;;6241638;23;19947;-89
2022/01/13 07:40:17;;;;;;;;;;;19.20;55.30;;;;;;6214562;23;19911;-84
2022/01/13 07:42:46;;;;;;;;;;;19.20;55.30;;;;;;6242853;23;19904;-87
2022/01/13 07:45:13;;;;;;;;;;;19.20;55.20;;;;;;6216273;23;19965;-92
2022/01/13 07:47:38;;;;;;;;;;;19.10;55.10;;;;;;6241925;23;19921;-91
2022/01/13 07:50:05;;;;;;;;;;;19.10;55.10;;;;;;6241932;23;19931;-82
2022/01/13 07:52:30;;;;;;;;;;;19.10;55.20;;;;;;6241524;23;20012;-84
2022/01/13 07:54:56;;;;;;;;;;;19.10;55.10;;;;;;6241635;23;20352;-83
2022/01/13 07:57:22;;;;;;;;;;;19.10;55.10;;;;;;6214909;23;19990;-91
2022/01/13 07:59:48;;;;;;;;;;;19.10;55.10;;;;;;6241792;23;19911;-81
2022/01/13 08:02:13;;;;;;;;;;;19.10;55.10;;;;;;6243380;23;19961;-92
2022/01/13 08:04:39;;;;;;;;;;;19.00;55.00;;;;;;6244256;23;19938;-91
2022/01/13 08:07:04;;;;;;;;;;;19.00;55.00;;;;;;6243870;23;19903;-89
2022/01/13 08:09:30;;;;;;;;;;;19.00;55.00;;;;;;6243218;23;19910;-91
2022/01/13 08:11:55;;;;;;;;;;;19.00;54.90;;;;;;6242079;23;19907;-91
2022/01/13 08:14:21;;;;;;;;;;;18.90;54.90;;;;;;6215172;23;19904;-89
2022/01/13 08:16:47;;;;;;;;;;;18.90;54.80;;;;;;6216204;23;19926;-90
2022/01/13 08:21:57;;;;;;;;;;;18.90;54.80;;;;;;6241781;23;19958;-89
2022/01/13 08:24:22;;;;;;;;;;;18.90;54.90;;;;;;6241780;23;20244;-90
2022/01/13 08:26:48;;;;;;;;;;;18.80;54.80;;;;;;6243016;23;19966;-91
2022/01/13 08:29:14;;;;;;;;;;;18.80;54.70;;;;;;6243021;23;19914;-89
2022/01/13 08:31:39;;;;;;;;;;;18.80;54.80;;;;;;6241769;23;20335;-93
2022/01/13 08:34:06;;;;;;;;;;;18.80;54.80;;;;;;6241749;23;19904;-89
2022/01/13 08:36:31;;;;;;;;;;;18.80;54.70;;;;;;6214600;23;19990;-86
2022/01/13 08:38:57;;;;;;;;;;;18.70;54.70;;;;;;6241869;23;19942;-89
2022/01/13 08:41:22;;;;;;;;;;;18.70;55.00;;;;;;6241598;23;19946;-92
2022/01/13 08:43:51;;;;;;;;;;;18.70;54.60;;;;;;6243358;23;19949;-86
2022/01/13 08:46:17;;;;;;;;;;;18.70;54.70;;;;;;6244678;23;19917;-89
2022/01/13 08:48:43;;;;;;;;;;;18.60;54.60;;;;;;6242856;23;19904;-87
2022/01/13 08:51:08;;;;;;;;;;;18.60;54.60;;;;;;6241771;23;19938;-90
2022/01/13 08:53:34;;;;;;;;;;;18.60;54.60;;;;;;6242100;23;19970;-83
2022/01/13 08:56:00;;;;;;;;;;;18.60;54.50;;;;;;6242251;23;19967;-90
2022/01/13 08:58:25;;;;;;;;;;;18.60;54.50;;;;;;6242315;23;19949;-89
2022/01/13 09:00:53;;;;;;;;;;;18.60;54.50;;;;;;6215108;23;20333;-85
2022/01/13 09:03:18;;;;;;;;;;;18.60;54.50;;;;;;6216701;23;19953;-90
2022/01/13 09:05:44;;;;;;;;;;;18.60;54.50;;;;;;6213239;23;19918;-91
2022/01/13 09:08:10;;;;;;;;;;;18.50;54.60;;;;;;6214604;23;20087;-90
2022/01/13 09:10:40;;;;;;;;;;;18.50;54.40;;;;;;6215095;23;19947;-91
2022/01/13 09:13:06;;;;;;;;;;;18.50;54.30;;;;;;6215263;23;19922;-87
2022/01/13 09:15:36;;;;;;;;;;;18.50;54.40;;;;;;6241552;23;19977;-92
2022/01/13 09:18:09;;;;;;;;;;;18.50;54.50;;;;;;6241734;23;19953;-92
2022/01/13 09:20:35;;;;;;;;;;;18.50;54.40;;;;;;6240674;23;19946;-90
2022/01/13 09:23:00;;;;;;;;;;;18.50;54.30;;;;;;6241769;23;20339;-91
2022/01/13 09:25:26;;;;;;;;;;;18.50;54.40;;;;;;6241660;23;19912;-91
2022/01/13 09:27:51;;;;;;;;;;;18.50;55.30;;;;;;6215028;23;19957;-91
2022/01/13 09:30:17;;;;;;;;;;;18.50;54.30;;;;;;6215726;23;19903;-91
2022/01/13 09:32:43;;;;;;;;;;;18.50;54.40;;;;;;6241436;23;19944;-89
2022/01/13 09:35:08;;;;;;;;;;;18.50;54.40;;;;;;6240556;23;19973;-89
2022/01/13 09:37:35;;;;;;;;;;;18.50;54.50;;;;;;6241633;23;20257;-87
2022/01/13 09:40:00;;;;;;;;;;;18.50;54.30;;;;;;6241048;23;19915;-90
2022/01/13 09:42:26;;;;;;;;;;;18.40;54.40;;;;;;6241379;23;19916;-87
2022/01/13 09:44:53;;;;;;;;;;;18.40;54.20;;;;;;6241314;23;19908;-92
2022/01/13 09:47:20;;;;;;;;;;;18.50;54.30;;;;;;6242289;23;19946;-91
2022/01/13 09:49:45;;;;;;;;;;;18.40;54.20;;;;;;6240858;23;19908;-86
2022/01/13 09:52:11;;;;;;;;;;;18.40;54.40;;;;;;6241352;23;19984;-89
2022/01/13 09:54:36;;;;;;;;;;;18.40;54.30;;;;;;6214901;23;20333;-91
2022/01/13 09:57:02;;;;;;;;;;;18.40;54.30;;;;;;6240941;23;20036;-89
2022/01/13 09:59:28;;;;;;;;;;;18.40;54.40;;;;;;6214056;23;19936;-90
2022/01/13 10:01:53;;;;;;;;;;;18.40;54.30;;;;;;6240703;23;19971;-84
2022/01/13 10:04:19;;;;;;;;;;;18.40;54.30;;;;;;6214467;23;19907;-86
2022/01/13 10:06:47;;;;;;;;;;;18.40;54.30;;;;;;6241825;23;19948;-89
2022/01/13 10:09:13;;;;;;;;;;;18.40;54.30;;;;;;6241059;23;19949;-90
2022/01/13 10:11:42;;;;;;;;;;;18.40;54.20;;;;;;6214029;23;19907;-84
2022/01/13 10:14:16;;;;;;;;;;;18.40;54.20;;;;;;6213890;23;20244;-87
2022/01/13 10:16:43;;;;;;;;;;;18.40;54.20;;;;;;6240653;23;20328;-89
2022/01/13 10:19:24;;;;;;;;;;;18.40;54.20;;;;;;6240441;23;20370;-90
2022/01/13 10:22:01;;;;;;;;;;;18.40;54.20;;;;;;6241555;23;19949;-80
2022/01/13 10:24:28;;;;;;;;;;;18.30;54.30;;;;;;6213650;23;20021;-87
2022/01/13 10:27:00;;;;;;;;;;;18.40;54.40;;;;;;6240610;23;19973;-84
2022/01/13 10:29:42;;;;;;;;;;;18.40;54.30;;;;;;6240229;23;19988;-85
2022/01/13 10:32:10;;;;;;;;;;;18.40;54.20;;;;;;6240427;23;20002;-88
2022/01/13 10:34:37;;;;;;;;;;;18.40;54.30;;;;;;6239496;23;19925;-88
2022/01/13 10:37:11;;;;;;;;;;;18.40;54.30;;;;;;6240400;23;19907;-86
2022/01/13 10:39:43;;;;;;;;;;;18.50;54.30;;;;;;6240228;23;19931;-85
2022/01/13 10:42:20;;;;;;;;;;;18.50;54.30;;;;;;6239684;23;20397;-84
2022/01/13 10:44:52;;;;;;;;;;;18.50;54.30;;;;;;6241290;23;19907;-90
2022/01/13 10:47:18;;;;;;;;;;;18.50;54.30;;;;;;6213623;23;19927;-86
2022/01/13 10:49:47;;;;;;;;;;;18.60;54.40;;;;;;6239978;23;20324;-83
2022/01/13 10:52:27;;;;;;;;;;;18.60;54.40;;;;;;6214661;23;19957;-88
2022/01/13 10:54:53;;;;;;;;;;;18.60;55.20;;;;;;6241889;23;19938;-84
2022/01/13 10:57:23;;;;;;;;;;;18.60;54.20;;;;;;6243080;23;19907;-84
2022/01/13 10:59:48;;;;;;;;;;;18.60;54.10;;;;;;6233089;23;19912;-89
2022/01/13 11:02:14;;;;;;;;;;;18.70;54.20;;;;;;6241841;23;19968;-87
2022/01/13 11:04:39;;;;;;;;;;;18.70;54.20;;;;;;6239092;23;19949;-88
2022/01/13 11:07:17;;;;;;;;;;;18.70;54.20;;;;;;6240977;23;20281;-82
2022/01/13 11:09:51;;;;;;;;;;;18.70;54.10;;;;;;6241805;23;19946;-86
2022/01/13 11:12:16;;;;;;;;;;;18.80;54.10;;;;;;6242786;23;19904;-85
2022/01/13 11:14:47;;;;;;;;;;;18.70;54.00;;;;;;6215162;23;19957;-84
2022/01/13 11:17:12;;;;;;;;;;;18.80;54.20;;;;;;6241447;23;19963;-89
2022/01/13 11:19:39;;;;;;;;;;;18.70;54.10;;;;;;6241000;23;19945;-80
2022/01/13 11:22:05;;;;;;;;;;;18.80;54.00;;;;;;6215198;23;20295;-88
2022/01/13 11:24:31;;;;;;;;;;;18.70;54.00;;;;;;6240111;23;19990;-84
2022/01/13 11:26:57;;;;;;;;;;;18.80;54.30;;;;;;6214341;23;19904;-88
2022/01/13 11:29:23;;;;;;;;;;;18.80;55.00;;;;;;6241195;23;19943;-87
2022/01/13 11:31:50;;;;;;;;;;;18.80;53.90;;;;;;6215338;23;19912;-82
2022/01/13 11:34:16;;;;;;;;;;;18.80;54.00;;;;;;6241336;23;19903;-83
2022/01/13 11:36:42;;;;;;;;;;;18.80;53.90;;;;;;6241633;23;20277;-90
2022/01/13 11:39:07;;;;;;;;;;;18.80;54.00;;;;;;6214446;23;19910;-86
2022/01/13 11:41:33;;;;;;;;;;;18.80;54.10;;;;;;6214545;23;20370;-88
2022/01/13 11:44:12;;;;;;;;;;;18.80;54.10;;;;;;6217661;23;19908;-83
2022/01/13 11:46:44;;;;;;;;;;;18.80;54.20;;;;;;6248856;23;19926;-89
2022/01/13 11:49:16;;;;;;;;;;;18.80;54.70;;;;;;6215502;23;19930;-81
2022/01/13 11:51:43;;;;;;;;;;;18.90;55.00;;;;;;6241337;23;19904;-84
2022/01/13 11:54:09;;;;;;;;;;;19.00;55.20;;;;;;6240923;23;19908;-86
2022/01/13 11:56:34;;;;;;;;;;;19.00;55.20;;;;;;6241157;23;19953;-82
2022/01/13 11:59:00;;;;;;;;;;;19.00;55.30;;;;;;6241464;23;19907;-84
2022/01/13 12:01:27;;;;;;;;;;;19.10;55.40;;;;;;6241242;23;19919;-89
2022/01/13 12:03:56;;;;;;;;;;;19.00;55.20;;;;;;6241375;23;19978;-79
2022/01/13 12:06:34;;;;;;;;;;;19.00;55.20;;;;;;6215178;23;19903;-87
2022/01/13 12:08:59;;;;;;;;;;;19.00;55.20;;;;;;6214316;23;19989;-87
2022/01/13 12:11:45;;;;;;;;;;;19.00;55.10;;;;;;6242461;23;19904;-82
2022/01/13 12:14:29;;;;;;;;;;;19.00;55.10;;;;;;6242400;23;19938;-89
2022/01/13 12:17:01;;;;;;;;;;;19.00;55.30;;;;;;6242280;23;19911;-84
2022/01/13 12:19:34;;;;;;;;;;;19.00;55.40;;;;;;6214833;23;20355;-86
2022/01/13 12:22:04;;;;;;;;;;;19.00;55.40;;;;;;6215822;23;19957;-84
2022/01/13 12:24:42;;;;;;;;;;;19.00;55.50;;;;;;6238588;23;20341;-88
2022/01/13 12:27:08;;;;;;;;;;;19.00;55.50;;;;;;6239085;23;19946;-87
2022/01/13 12:29:36;;;;;;;;;;;19.00;55.50;;;;;;6240755;23;19953;-89
2022/01/13 12:32:03;;;;;;;;;;;19.00;55.60;;;;;;6240262;23;19933;-84
2022/01/13 12:34:29;;;;;;;;;;;18.90;54.60;;;;;;6238864;23;19925;-84
2022/01/13 12:36:55;;;;;;;;;;;19.00;55.40;;;;;;6237567;23;19910;-81
2022/01/13 12:39:21;;;;;;;;;;;18.70;55.10;;;;;;6239459;23;19908;-85
2022/01/13 12:42:02;;;;;;;;;;;18.90;55.30;;;;;;6239911;23;19960;-83
2022/01/13 12:47:13;;;;;;;;;;;18.90;55.30;;;;;;6239691;23;20485;-90
2022/01/13 12:49:39;;;;;;;;;;;18.80;55.30;;;;;;6240384;23;19922;-89
2022/01/13 12:52:05;;;;;;;;;;;18.80;55.30;;;;;;6210759;23;19925;-79
2022/01/13 12:54:30;;;;;;;;;;;18.90;55.30;;;;;;6238485;23;19907;-86
2022/01/13 12:57:02;;;;;;;;;;;18.80;55.30;;;;;;6212460;23;20655;-86
2022/01/13 12:59:27;;;;;;;;;;;18.80;55.20;;;;;;6239764;23;20765;-83
2022/01/13 13:01:56;;;;;;;;;;;18.80;55.70;;;;;;6240076;23;19983;-80
2022/01/13 13:04:21;;;;;;;;;;;18.80;55.30;;;;;;6239537;23;19920;-83
2022/01/13 13:06:49;;;;;;;;;;;18.80;55.30;;;;;;6239280;23;20042;-84
2022/01/13 13:09:18;;;;;;;;;;;18.80;55.30;;;;;;6238858;23;19972;-85
2022/01/13 13:11:46;;;;;;;;;;;18.80;55.20;;;;;;6239023;23;19917;-90
2022/01/13 13:14:18;;;;;;;;;;;18.80;55.20;;;;;;6239835;23;19904;-86
2022/01/13 13:16:44;;;;;;;;;;;18.80;55.30;;;;;;6239581;23;20385;-87
2022/01/13 13:19:09;;;;;;;;;;;18.80;55.20;;;;;;6238741;23;19908;-82
2022/01/13 13:21:35;;;;;;;;;;;18.80;55.40;;;;;;6238147;23;20086;-84
2022/01/13 13:24:01;;;;;;;;;;;18.80;55.20;;;;;;6237409;23;19960;-85
2022/01/13 13:26:26;;;;;;;;;;;18.80;54.40;;;;;;6238214;23;20393;-83
2022/01/13 13:28:52;;;;;;;;;;;18.80;55.40;;;;;;6238314;23;19949;-83
2022/01/13 13:31:29;;;;;;;;;;;18.80;55.20;;;;;;6211605;23;20326;-83
2022/01/13 13:34:12;;;;;;;;;;;18.80;55.10;;;;;;6237583;23;19969;-85
2022/01/13 13:36:39;;;;;;;;;;;18.80;55.10;;;;;;6213000;23;19941;-84
2022/01/13 13:39:13;;;;;;;;;;;18.80;55.10;;;;;;6212749;23;19962;-84
2022/01/13 13:41:38;;;;;;;;;;;18.70;55.00;;;;;;6241135;23;19990;-85
2022/01/13 13:44:05;;;;;;;;;;;18.80;55.10;;;;;;6241353;23;19943;-84
2022/01/13 13:46:30;;;;;;;;;;;18.70;55.10;;;;;;6240155;23;20004;-88
2022/01/13 13:48:57;;;;;;;;;;;18.80;55.20;;;;;;6240539;23;20361;-86
2022/01/13 13:51:25;;;;;;;;;;;18.70;55.00;;;;;;6241342;23;19948;-79
2022/01/13 13:54:08;;;;;;;;;;;18.70;55.00;;;;;;6241713;23;19938;-88
2022/01/13 13:56:37;;;;;;;;;;;18.70;55.00;;;;;;6213860;23;19933;-80
2022/01/13 13:59:04;;;;;;;;;;;18.70;55.00;;;;;;6240231;23;19935;-84
2022/01/13 14:01:29;;;;;;;;;;;18.70;55.00;;;;;;6240196;23;19943;-84
2022/01/13 14:03:55;;;;;;;;;;;18.60;54.90;;;;;;6240226;23;19907;-84
2022/01/13 14:06:39;;;;;;;;;;;18.70;55.00;;;;;;6241847;23;19916;-89
2022/01/13 14:09:04;;;;;;;;;;;18.60;54.90;;;;;;6239280;23;20340;-83
2022/01/13 14:11:47;;;;;;;;;;;18.70;55.00;;;;;;6240192;23;19952;-84
2022/01/13 14:14:13;;;;;;;;;;;18.70;55.00;;;;;;6239914;23;19952;-86
2022/01/13 14:16:38;;;;;;;;;;;18.70;55.00;;;;;;6240530;23;19948;-84
2022/01/13 14:19:07;;;;;;;;;;;18.70;56.10;;;;;;6239867;23;20238;-83
2022/01/13 14:21:46;;;;;;;;;;;18.80;55.10;;;;;;6240077;23;19990;-86
2022/01/13 14:30:00;;;;;;;5.22;2.10;;;22.10;49.70;;;;;;5062050;28;20739;-75
2022/01/13 14:32:30;;;;;;;2.22;1.70;;;21.80;51.80;;;;;;5064773;28;20029;-78
2022/01/13 14:34:57;;;;;;;2.22;1.67;;;21.30;53.60;;;;;;5063252;28;20103;-78
2022/01/13 14:38:33;;;;;;;6.57;5.38;;;;;;;;;;5065459;28;20394;-91
2022/01/13 14:40:59;;;;;;;6.85;5.22;;;;;;;;;;5054453;28;20028;-90
2022/01/13 14:43:25;;;;;;;7.18;5.03;;;;;;;;;;5052837;28;20029;-91
2022/01/13 14:46:05;;;;;;;6.32;4.80;;;;;;;;;;5049490;28;20075;-90
2022/01/13 14:48:31;;;;;;;9.27;5.32;;;;;;;;;;5042623;28;20029;-89